Time;durP1;ratioP1;P1;durP2;ratioP2;P2;SDS_P1;SDS_P2;PMS_P1;PMS_P2;Temp;Humidity;BMP_temperature;BMP_pressure;BME280_temperature;BME280_humidity;BME280_pressure;Samples;Min_cycle;Max_cycle;Signal;HPM_P1;HPM_P2
2022/01/01 00:00:16;;;;;;;319.83;158.13;;;;;;;9.54;100.00;102205.53;5048149;28;20481;-41
2022/01/01 00:02:41;;;;;;;358.42;181.85;;;;;;;9.55;100.00;102209.91;5042629;28;20029;-42
2022/01/01 00:05:09;;;;;;;372.70;191.13;;;;;;;9.54;100.00;102211.75;5054399;28;20031;-41
2022/01/01 00:07:35;;;;;;;384.93;198.70;;;;;;;9.56;100.00;102211.63;5052231;28;20052;-41
2022/01/01 00:10:01;;;;;;;369.13;192.77;;;;;;;9.56;100.00;102209.78;5053863;28;20029;-42
2022/01/01 00:12:26;;;;;;;384.55;180.43;;;;;;;9.57;100.00;102207.94;5036463;28;20432;-41
2022/01/01 00:14:51;;;;;;;376.73;172.48;;;;;;;9.59;100.00;102203.28;5034204;28;20037;-41
2022/01/01 00:17:17;;;;;;;363.08;155.30;;;;;;;9.60;100.00;102202.28;5037182;28;20033;-42
2022/01/01 00:19:42;;;;;;;354.35;158.27;;;;;;;9.62;100.00;102200.31;5036306;28;20076;-41
2022/01/01 00:22:08;;;;;;;382.50;161.88;;;;;;;9.64;100.00;102214.47;5035231;28;20037;-41
2022/01/01 00:24:34;;;;;;;401.40;165.70;;;;;;;9.67;100.00;102214.16;5035375;28;20027;-41
2022/01/01 00:27:00;;;;;;;345.92;152.98;;;;;;;9.67;100.00;102200.72;5035352;28;20032;-43
2022/01/01 00:29:25;;;;;;;337.85;156.55;;;;;;;9.66;100.00;102199.88;5038014;28;20036;-41
2022/01/01 00:31:51;;;;;;;318.23;145.55;;;;;;;9.68;100.00;102210.47;5036595;28;20032;-41
2022/01/01 00:34:16;;;;;;;334.02;151.45;;;;;;;9.72;100.00;102203.00;5035533;28;20092;-41
2022/01/01 00:36:41;;;;;;;395.92;177.38;;;;;;;9.75;100.00;102206.25;5038960;28;20067;-41
2022/01/01 00:39:07;;;;;;;384.38;172.13;;;;;;;9.76;100.00;102207.91;5037746;28;20029;-41
2022/01/01 00:41:32;;;;;;;345.63;148.57;;;;;;;9.75;100.00;102200.88;5052089;28;20366;-42
2022/01/01 00:43:57;;;;;;;323.75;135.80;;;;;;;9.76;100.00;102191.78;5063089;28;20445;-41
2022/01/01 00:46:23;;;;;;;358.08;149.70;;;;;;;9.77;100.00;102195.31;5037894;28;20449;-41
2022/01/01 00:48:53;;;;;;;324.45;134.95;;;;;;;9.79;100.00;102201.41;5036263;28;20485;-41
2022/01/01 00:51:18;;;;;;;334.98;143.43;;;;;;;9.78;100.00;102202.41;5035314;28;20045;-42
2022/01/01 00:53:43;;;;;;;346.88;148.63;;;;;;;9.76;100.00;102212.47;5045697;28;20496;-41
2022/01/01 00:56:09;;;;;;;341.42;145.38;;;;;;;9.76;100.00;102207.91;5053099;28;20397;-41
2022/01/01 00:58:34;;;;;;;328.70;141.90;;;;;;;9.76;100.00;102221.38;5041556;28;20500;-41
2022/01/01 01:00:59;;;;;;;320.92;139.80;;;;;;;9.76;100.00;102226.75;5043867;28;20021;-41
2022/01/01 01:03:25;;;;;;;309.02;132.18;;;;;;;9.80;100.00;102219.25;5040352;28;20029;-41
2022/01/01 01:05:51;;;;;;;314.15;128.75;;;;;;;9.82;100.00;102228.00;5045547;28;20033;-42
2022/01/01 01:08:16;;;;;;;306.00;130.30;;;;;;;9.83;100.00;102235.09;5053276;28;20033;-42
2022/01/01 01:10:45;;;;;;;325.33;132.95;;;;;;;9.83;100.00;102230.56;5052864;28;20025;-42
2022/01/01 01:13:12;;;;;;;291.95;125.20;;;;;;;9.90;100.00;102233.53;5043605;28;20029;-42
2022/01/01 01:15:38;;;;;;;278.67;116.72;;;;;;;9.91;100.00;102229.84;5053551;28;20025;-42
2022/01/01 01:18:04;;;;;;;244.32;98.25;;;;;;;9.97;100.00;102226.56;5040865;28;20147;-42
2022/01/01 01:20:30;;;;;;;213.77;80.43;;;;;;;10.07;100.00;102213.13;5053887;28;20029;-42
2022/01/01 01:22:56;;;;;;;191.77;70.45;;;;;;;10.13;100.00;102225.13;5045295;28;20127;-43
2022/01/01 01:25:22;;;;;;;171.70;61.85;;;;;;;10.19;100.00;102236.19;5034943;28;20049;-42
2022/01/01 01:27:50;;;;;;;155.30;59.03;;;;;;;10.25;100.00;102232.91;5039154;28;20054;-42
2022/01/01 01:30:16;;;;;;;144.17;53.13;;;;;;;10.25;100.00;102240.97;5052298;28;20029;-42
2022/01/01 01:32:43;;;;;;;148.10;51.97;;;;;;;10.24;100.00;102254.56;5048845;28;20025;-43
2022/01/01 01:35:09;;;;;;;149.40;58.80;;;;;;;10.23;100.00;102242.94;5033816;28;20040;-42
2022/01/01 01:37:34;;;;;;;153.18;56.47;;;;;;;10.20;100.00;102227.09;5047203;28;20064;-42
2022/01/01 01:39:59;;;;;;;154.82;62.00;;;;;;;10.20;100.00;102237.88;5053656;28;20098;-42
2022/01/01 01:42:27;;;;;;;132.27;51.33;;;;;;;10.20;100.00;102243.25;5048206;28;20025;-42
2022/01/01 01:44:53;;;;;;;119.65;43.78;;;;;;;10.23;100.00;102247.50;5033801;28;20056;-43
2022/01/01 01:47:28;;;;;;;113.18;43.05;;;;;;;10.21;100.00;102238.72;5033664;28;20037;-42
2022/01/01 01:49:54;;;;;;;122.65;42.15;;;;;;;10.20;100.00;102234.34;5037164;28;20032;-42
2022/01/01 01:52:20;;;;;;;105.68;42.72;;;;;;;10.19;100.00;102235.31;5033619;28;20033;-42
2022/01/01 01:54:45;;;;;;;134.80;45.30;;;;;;;10.18;100.00;102228.25;5032351;28;20033;-42
2022/01/01 01:57:11;;;;;;;135.20;48.78;;;;;;;10.16;100.00;102225.69;5035510;28;20024;-42
2022/01/01 01:59:37;;;;;;;130.50;51.30;;;;;;;10.17;100.00;102222.03;5052998;28;20032;-42
2022/01/01 02:02:03;;;;;;;162.77;63.33;;;;;;;10.20;100.00;102219.03;5053067;28;20037;-43
2022/01/01 02:04:28;;;;;;;146.02;56.33;;;;;;;10.27;100.00;102219.31;5047790;28;20032;-42
2022/01/01 02:06:54;;;;;;;133.20;52.20;;;;;;;10.28;100.00;102218.34;5037097;28;20040;-42
2022/01/01 02:09:19;;;;;;;120.35;45.58;;;;;;;10.29;100.00;102210.13;5037271;28;20037;-42
2022/01/01 02:11:44;;;;;;;122.10;45.88;;;;;;;10.32;100.00;102207.16;5031871;28;20535;-42
2022/01/01 02:14:18;;;;;;;134.55;49.90;;;;;;;10.33;100.00;102211.50;5039969;28;20026;-41
2022/01/01 02:17:09;;;;;;;145.70;53.10;;;;;;;10.36;100.00;102209.53;5041855;28;20032;-42
2022/01/01 02:19:51;;;;;;;136.95;57.60;;;;;;;10.38;100.00;102208.38;5034087;28;20053;-42
2022/01/01 02:22:17;;;;;;;130.70;53.25;;;;;;;10.43;100.00;102210.66;5045810;28;20060;-41
2022/01/01 02:24:42;;;;;;;148.65;56.67;;;;;;;10.44;100.00;102215.03;5052801;28;20108;-41
2022/01/01 02:27:08;;;;;;;127.43;47.28;;;;;;;10.47;100.00;102207.50;5052710;28;20116;-41
2022/01/01 02:29:34;;;;;;;132.95;49.42;;;;;;;10.51;100.00;102203.53;5051143;28;20083;-42
2022/01/01 02:31:59;;;;;;;152.05;61.88;;;;;;;10.58;100.00;102211.00;5052899;28;20017;-42
2022/01/01 02:34:25;;;;;;;136.02;57.25;;;;;;;10.61;100.00;102216.94;5052739;28;20032;-41
2022/01/01 02:36:50;;;;;;;119.28;38.30;;;;;;;10.70;100.00;102212.50;5047603;28;20404;-41
2022/01/01 02:39:20;;;;;;;155.35;59.17;;;;;;;10.75;100.00;102219.13;5051412;28;20547;-41
2022/01/01 02:41:48;;;;;;;102.70;39.22;;;;;;;10.82;100.00;102215.84;5052622;28;20035;-41
2022/01/01 02:44:14;;;;;;;;;;;;;;;10.85;100.00;102223.59;5040638;28;20036;-41
2022/01/01 02:46:39;;;;;;;82.93;32.28;;;;;;;10.90;100.00;102229.41;5032675;28;20353;-41
2022/01/01 02:49:05;;;;;;;108.53;33.85;;;;;;;10.91;100.00;102233.81;5032591;28;20108;-43
2022/01/01 02:51:30;;;;;;;95.03;32.38;;;;;;;10.94;100.00;102228.13;5049591;28;20071;-41
2022/01/01 02:53:56;;;;;;;99.90;32.75;;;;;;;10.96;100.00;102239.59;5035101;28;20040;-41
2022/01/01 02:56:21;;;;;;;89.38;30.48;;;;;;;10.96;100.00;102224.28;5032272;28;20083;-41
2022/01/01 02:58:47;;;;;;;84.68;29.33;;;;;;;10.99;100.00;102221.28;5033517;28;20079;-42
2022/01/01 03:01:12;;;;;;;84.95;30.10;;;;;;;11.02;100.00;102216.59;5032435;28;20033;-41
2022/01/01 03:03:37;;;;;;;92.85;31.58;;;;;;;11.01;100.00;102210.34;5032436;28;20030;-42
2022/01/01 03:06:03;;;;;;;86.38;30.05;;;;;;;11.03;100.00;102212.88;5032231;28;20119;-43
2022/01/01 03:08:29;;;;;;;92.13;31.40;;;;;;;11.04;100.00;102212.75;5036697;28;20132;-41
2022/01/01 03:10:54;;;;;;;85.75;32.92;;;;;;;11.02;100.00;102201.25;5032216;28;20022;-42
2022/01/01 03:13:20;;;;;;;100.50;31.95;;;;;;;10.98;100.00;102207.97;5037137;28;20065;-43
2022/01/01 03:15:45;;;;;;;85.07;29.30;;;;;;;10.97;100.00;102198.19;5050195;28;20469;-43
2022/01/01 03:18:10;;;;;;;104.20;33.92;;;;;;;10.91;100.00;102188.00;5032030;28;20148;-42
2022/01/01 03:20:36;;;;;;;84.18;29.02;;;;;;;10.87;100.00;102194.69;5033048;28;20053;-41
2022/01/01 03:23:03;;;;;;;75.35;29.15;;;;;;;10.82;100.00;102199.69;5032186;28;20444;-41
2022/01/01 03:25:28;;;;;;;90.32;29.88;;;;;;;10.81;100.00;102203.38;5035211;28;20052;-41
2022/01/01 03:27:53;;;;;;;77.82;26.42;;;;;;;10.83;100.00;102201.41;5032049;28;20018;-41
2022/01/01 03:30:19;;;;;;;73.53;24.17;;;;;;;10.82;100.00;102194.28;5047413;28;20036;-43
2022/01/01 03:32:44;;;;;;;78.90;24.73;;;;;;;10.81;100.00;102203.38;5033705;28;20029;-41
2022/01/01 03:35:09;;;;;;;70.22;23.45;;;;;;;10.79;100.00;102210.75;5032076;28;20033;-42
2022/01/01 03:37:35;;;;;;;86.13;25.83;;;;;;;10.77;100.00;102209.06;5031823;28;20060;-42
2022/01/01 03:40:00;;;;;;;63.00;22.85;;;;;;;10.74;100.00;102209.38;5035041;28;20074;-43
2022/01/01 03:42:25;;;;;;;82.82;24.58;;;;;;;10.71;100.00;102198.88;5064192;28;20096;-41
2022/01/01 03:44:51;;;;;;;67.55;24.17;;;;;;;10.68;100.00;102209.09;5051867;28;20029;-42
2022/01/01 03:47:16;;;;;;;74.95;23.77;;;;;;;10.67;100.00;102207.44;5049745;28;20075;-40
2022/01/01 03:49:41;;;;;;;76.45;23.25;;;;;;;10.69;100.00;102198.19;5051885;28;20056;-41
2022/01/01 03:52:07;;;;;;;69.65;22.95;;;;;;;10.67;100.00;102202.88;5050412;28;20102;-41
2022/01/01 03:54:32;;;;;;;67.75;22.40;;;;;;;10.66;100.00;102209.25;5050568;28;20076;-42
2022/01/01 03:56:59;;;;;;;63.22;22.40;;;;;;;10.65;100.00;102207.56;5036821;28;20048;-42
2022/01/01 03:59:25;;;;;;;72.78;23.83;;;;;;;10.64;100.00;102203.19;5032068;28;20393;-41
2022/01/01 04:01:50;;;;;;;63.65;23.73;;;;;;;10.64;100.00;102219.34;5035906;28;20022;-42
2022/01/01 04:04:16;;;;;;;68.72;26.25;;;;;;;10.65;100.00;102220.19;5031902;28;20033;-42
2022/01/01 04:06:41;;;;;;;75.28;26.88;;;;;;;10.67;100.00;102221.72;5036240;28;20025;-42
2022/01/01 04:09:06;;;;;;;77.05;27.60;;;;;;;10.69;100.00;102217.06;5051546;28;20036;-42
2022/01/01 04:11:32;;;;;;;91.03;28.17;;;;;;;10.73;100.00;102217.59;5045762;28;20392;-43
2022/01/01 04:13:57;;;;;;;68.97;27.48;;;;;;;10.75;100.00;102208.38;5032049;28;20033;-42
2022/01/01 04:16:23;;;;;;;78.55;26.95;;;;;;;10.75;100.00;102208.38;5035718;28;20033;-42
2022/01/01 04:18:48;;;;;;;74.53;26.20;;;;;;;10.77;100.00;102205.53;5038944;28;20045;-41
2022/01/01 04:21:14;;;;;;;79.70;26.58;;;;;;;10.79;100.00;102218.84;5036917;28;20029;-41
2022/01/01 04:23:40;;;;;;;65.35;25.23;;;;;;;10.80;100.00;102217.84;5028605;28;20021;-42
2022/01/01 04:26:07;;;;;;;64.88;25.20;;;;;;;10.81;100.00;102223.06;5028981;28;20116;-41
2022/01/01 04:28:33;;;;;;;67.30;25.63;;;;;;;10.83;100.00;102226.47;5047287;28;20527;-43
2022/01/01 04:30:58;;;;;;;66.47;25.55;;;;;;;10.86;100.00;102230.72;5050382;28;20037;-41
2022/01/01 04:33:23;;;;;;;59.88;22.73;;;;;;;10.90;100.00;102234.78;5050665;28;20024;-41
2022/01/01 04:35:49;;;;;;;65.63;22.33;;;;;;;10.91;99.79;102236.50;5051823;28;20055;-42
2022/01/01 04:40:58;;;;;;;59.22;21.85;;;;;;;10.94;99.58;102233.50;5044353;28;20044;-41
2022/01/01 04:43:23;;;;;;;60.40;20.98;;;;;;;10.94;99.45;102231.66;5046197;28;20026;-41
2022/01/01 04:45:48;;;;;;;60.55;21.92;;;;;;;10.95;99.33;102227.09;5032581;28;20411;-42
2022/01/01 04:48:14;;;;;;;59.25;21.35;;;;;;;10.93;99.06;102221.03;5051792;28;20374;-41
2022/01/01 04:50:39;;;;;;;61.45;20.13;;;;;;;10.95;99.07;102224.41;5051783;28;20839;-41
2022/01/01 04:53:04;;;;;;;51.70;19.70;;;;;;;10.94;99.06;102222.72;5033535;28;20053;-42
2022/01/01 04:55:30;;;;;;;52.63;19.85;;;;;;;10.94;98.91;102218.19;5043349;28;20163;-41
2022/01/01 04:57:55;;;;;;;52.10;19.40;;;;;;;10.93;98.96;102210.25;5032698;28;20540;-43
2022/01/01 05:00:21;;;;;;;49.78;18.98;;;;;;;10.92;98.76;102219.31;5044737;28;20033;-41
2022/01/01 05:02:46;;;;;;;45.38;17.38;;;;;;;10.93;98.58;102221.88;5051156;28;20456;-41
2022/01/01 05:05:11;;;;;;;48.60;18.73;;;;;;;10.95;98.47;102206.44;5051358;28;20029;-42
2022/01/01 05:07:36;;;;;;;41.13;16.88;;;;;;;10.91;98.37;102220.34;5049470;28;20507;-42
2022/01/01 05:10:02;;;;;;;55.08;17.83;;;;;;;10.89;98.29;102223.16;5051110;28;20133;-42
2022/01/01 05:12:27;;;;;;;47.15;17.42;;;;;;;10.84;98.28;102213.84;5051345;28;20523;-43
2022/01/01 05:14:53;;;;;;;53.92;17.92;;;;;;;10.79;98.22;102203.53;5037693;28;20032;-41
2022/01/01 05:17:18;;;;;;;46.28;16.73;;;;;;;10.75;98.29;102208.38;5037021;28;20052;-41
2022/01/01 05:19:44;;;;;;;38.67;15.90;;;;;;;10.74;98.47;102208.50;5032185;28;20550;-41
2022/01/01 05:22:09;;;;;;;43.92;16.65;;;;;;;10.72;98.49;102211.38;5031123;28;20396;-41
2022/01/01 05:24:35;;;;;;;54.80;16.38;;;;;;;10.74;98.22;102198.59;5031257;28;20036;-41
2022/01/01 05:27:00;;;;;;;39.75;15.77;;;;;;;10.76;98.10;102191.19;5014007;28;20037;-41
2022/01/01 05:29:25;;;;;;;35.40;15.77;;;;;;;10.79;97.83;102183.81;5037028;28;20343;-41
2022/01/01 05:31:51;;;;;;;42.55;15.75;;;;;;;10.80;97.90;102180.16;5046369;28;20029;-41
2022/01/01 05:34:16;;;;;;;40.95;15.20;;;;;;;10.77;97.56;102171.38;5051048;28;20033;-41
2022/01/01 05:36:41;;;;;;;43.42;15.23;;;;;;;10.74;97.56;102187.84;5047245;28;20021;-42
2022/01/01 05:39:08;;;;;;;39.50;14.85;;;;;;;10.71;97.73;102193.50;5031420;28;20029;-43
2022/01/01 05:41:34;;;;;;;36.95;13.52;;;;;;;10.67;98.00;102192.13;5031741;28;20034;-41
2022/01/01 05:43:59;;;;;;;39.42;14.65;;;;;;;10.65;98.10;102188.72;5041591;28;20084;-41
2022/01/01 05:46:24;;;;;;;47.17;15.93;;;;;;;10.63;97.99;102190.69;5045876;28;20036;-42
2022/01/01 05:48:50;;;;;;;42.50;15.32;;;;;;;10.63;98.34;102195.25;5050757;28;20056;-41
2022/01/01 05:51:15;;;;;;;46.42;15.18;;;;;;;10.63;98.24;102198.78;5050499;28;20025;-41
2022/01/01 05:53:40;;;;;;;43.40;14.25;;;;;;;10.62;98.36;102191.72;5050535;28;20507;-42
2022/01/01 05:56:06;;;;;;;37.35;14.40;;;;;;;10.63;98.51;102196.09;5045948;28;20516;-41
2022/01/01 05:58:32;;;;;;;38.00;13.25;;;;;;;10.64;98.43;102197.81;5031356;28;20068;-41
2022/01/01 06:00:57;;;;;;;35.75;12.82;;;;;;;10.66;98.14;102198.47;5048466;28;20489;-41
2022/01/01 06:03:22;;;;;;;35.15;14.30;;;;;;;10.67;98.25;102197.50;5038898;28;20029;-41
2022/01/01 06:05:51;;;;;;;34.05;12.25;;;;;;;10.70;98.11;102205.28;5028913;28;20116;-42
2022/01/01 06:08:17;;;;;;;29.63;12.15;;;;;;;10.73;97.95;102201.44;5030029;28;20451;-41
2022/01/01 06:10:42;;;;;;;32.38;11.25;;;;;;;10.76;97.82;102210.06;5031469;28;20033;-42
2022/01/01 06:13:08;;;;;;;32.28;11.00;;;;;;;10.77;97.65;102211.75;5048834;28;20393;-42
2022/01/01 06:15:33;;;;;;;31.95;11.15;;;;;;;10.80;97.28;102202.53;5040536;28;20030;-43
2022/01/01 06:17:58;;;;;;;31.55;10.88;;;;;;;10.83;97.11;102204.09;5032301;28;20061;-41
2022/01/01 06:20:24;;;;;;;25.10;10.25;;;;;;;10.85;96.86;102208.31;5049472;28;20025;-41
2022/01/01 06:22:49;;;;;;;28.45;9.73;;;;;;;10.85;96.55;102194.84;5048561;28;20558;-42
2022/01/01 06:25:15;;;;;;;33.70;10.13;;;;;;;10.87;96.41;102202.78;5050100;28;20772;-41
2022/01/01 06:27:40;;;;;;;29.80;9.38;;;;;;;10.88;96.25;102193.72;5031210;28;20029;-41
2022/01/01 06:30:06;;;;;;;25.75;9.68;;;;;;;10.86;96.07;102206.47;5029994;28;20029;-42
2022/01/01 06:32:31;;;;;;;27.17;9.57;;;;;;;10.86;95.98;102198.41;5030226;28;20334;-41
2022/01/01 06:34:57;;;;;;;21.15;9.50;;;;;;;10.84;96.08;102186.91;5032136;28;20460;-42
2022/01/01 06:37:23;;;;;;;25.92;9.40;;;;;;;10.84;95.69;102201.22;5039166;28;20484;-42
2022/01/01 06:39:49;;;;;;;26.40;9.10;;;;;;;10.82;95.57;102205.06;5049421;28;20029;-42
2022/01/01 06:42:15;;;;;;;23.85;9.20;;;;;;;10.76;95.74;102201.97;5061092;28;20069;-43
2022/01/01 06:44:42;;;;;;;23.92;9.07;;;;;;;10.79;96.08;102205.38;5049672;28;20028;-42
2022/01/01 06:47:07;;;;;;;25.08;8.88;;;;;;;10.77;95.62;102203.69;5048912;28;20048;-39
2022/01/01 06:49:33;;;;;;;24.92;8.85;;;;;;;10.82;95.23;102207.75;5046644;28;20086;-42
2022/01/01 06:51:58;;;;;;;26.65;9.80;;;;;;;10.75;95.37;102202.97;5047699;28;20091;-43
2022/01/01 06:54:23;;;;;;;27.85;9.40;;;;;;;10.69;95.71;102208.97;5049467;28;20067;-44
2022/01/01 06:56:49;;;;;;;33.22;9.23;;;;;;;10.67;95.86;102215.50;5047699;28;20113;-43
2022/01/01 06:59:14;;;;;;;27.00;8.98;;;;;;;10.65;95.88;102212.94;5049561;28;20037;-43
2022/01/01 07:01:39;;;;;;;28.05;9.55;;;;;;;10.67;95.78;102213.66;5049401;28;20029;-43
2022/01/01 07:04:05;;;;;;;27.33;9.18;;;;;;;10.64;96.06;102208.56;5049344;28;20033;-42
2022/01/01 07:06:31;;;;;;;26.55;9.88;;;;;;;10.65;96.00;102198.66;5037750;28;20027;-42
2022/01/01 07:08:56;;;;;;;34.15;10.15;;;;;;;10.68;95.98;102203.72;5030442;28;20032;-41
2022/01/01 07:11:21;;;;;;;21.40;8.65;;;;;;;10.68;95.88;102201.03;5034580;28;20029;-42
2022/01/01 07:13:47;;;;;;;28.48;9.57;;;;;;;10.68;95.75;102198.34;5036304;28;20152;-42
2022/01/01 07:16:12;;;;;;;27.58;10.18;;;;;;;10.70;95.78;102207.13;5032741;28;20116;-41
2022/01/01 07:18:38;;;;;;;26.10;9.32;;;;;;;10.73;95.83;102218.44;5048532;28;20053;-42
2022/01/01 07:21:03;;;;;;;26.05;10.82;;;;;;;10.74;95.88;102214.75;5047450;28;20064;-42
2022/01/01 07:23:28;;;;;;;34.13;10.90;;;;;;;10.74;95.90;102224.66;5045601;28;20072;-41
2022/01/01 07:25:54;;;;;;;26.48;9.73;;;;;;;10.76;95.83;102226.22;5047518;28;20427;-42
2022/01/01 07:28:19;;;;;;;25.48;9.75;;;;;;;10.75;95.92;102232.59;5047702;28;20033;-41
2022/01/01 07:30:45;;;;;;;32.35;9.93;;;;;;;10.77;96.00;102227.91;5031380;28;20032;-41
2022/01/01 07:33:14;;;;;;;27.27;10.30;;;;;;;10.77;95.90;102236.00;5047864;28;20033;-42
2022/01/01 07:35:40;;;;;;;28.80;10.98;;;;;;;10.80;96.03;102221.38;5048265;28;20559;-42
2022/01/01 07:38:06;;;;;;;28.30;11.43;;;;;;;10.79;95.90;102230.44;5041542;28;20060;-41
2022/01/01 07:40:34;;;;;;;30.90;11.38;;;;;;;10.80;95.87;102225.94;5048840;28;20052;-42
2022/01/01 07:43:00;;;;;;;27.80;10.98;;;;;;;10.81;96.09;102227.63;5048861;28;20037;-42
2022/01/01 07:45:25;;;;;;;27.27;12.27;;;;;;;10.81;95.93;102227.63;5039538;28;20091;-43
2022/01/01 07:47:51;;;;;;;29.95;11.90;;;;;;;10.77;96.11;102227.09;5031108;28;20029;-41
2022/01/01 07:50:16;;;;;;;28.70;11.95;;;;;;;10.80;96.15;102223.25;5036602;28;21362;-42
2022/01/01 07:52:42;;;;;;;25.40;11.52;;;;;;;10.81;96.57;102215.00;5043167;28;20029;-41
2022/01/01 07:55:08;;;;;;;28.63;12.02;;;;;;;10.77;96.33;102214.47;5042967;28;20022;-42
2022/01/01 07:57:33;;;;;;;28.90;12.63;;;;;;;10.82;96.28;102215.84;5033594;28;20037;-42
2022/01/01 07:59:58;;;;;;;31.27;12.35;;;;;;;10.79;96.24;102216.97;5054912;28;20029;-41
2022/01/01 08:02:24;;;;;;;32.05;13.63;;;;;;;10.80;96.28;102224.09;5056193;28;20394;-42
2022/01/01 08:04:49;;;;;;;42.92;14.13;;;;;;;10.79;96.11;102233.13;5055160;28;20488;-42
2022/01/01 08:07:14;;;;;;;34.75;13.27;;;;;;;10.80;96.05;102240.25;5064874;28;20041;-42
2022/01/01 08:09:40;;;;;;;35.40;14.68;;;;;;;10.77;95.75;102240.53;5048258;28;20025;-40
2022/01/01 08:12:07;;;;;;;36.75;14.25;;;;;;;10.81;95.24;102247.31;5052827;28;20111;-42
2022/01/01 08:14:32;;;;;;;37.30;15.98;;;;;;;10.76;95.55;102250.44;5052805;28;20049;-42
2022/01/01 08:16:59;;;;;;;34.63;14.98;;;;;;;10.74;95.76;102241.69;5038554;28;20069;-41
2022/01/01 08:19:25;;;;;;;29.48;14.63;;;;;;;10.70;95.64;102239.44;5032902;28;20461;-42
2022/01/01 08:21:51;;;;;;;42.42;14.88;;;;;;;10.75;95.68;102242.53;5031851;28;20029;-41
2022/01/01 08:24:16;;;;;;;31.25;14.35;;;;;;;10.76;95.39;102234.28;5031330;28;20109;-41
2022/01/01 08:26:41;;;;;;;35.90;15.45;;;;;;;10.71;95.51;102228.50;5035874;28;20045;-42
2022/01/01 08:29:07;;;;;;;37.35;16.48;;;;;;;10.66;95.73;102236.16;5031416;28;20025;-43
2022/01/01 08:31:32;;;;;;;38.25;16.90;;;;;;;10.60;95.79;102222.47;5032441;28;20071;-43
2022/01/01 08:33:57;;;;;;;37.92;16.58;;;;;;;10.58;96.00;102222.59;5032365;28;20520;-43
2022/01/01 08:36:24;;;;;;;44.30;18.17;;;;;;;10.52;96.20;102220.50;5049588;28;20086;-42
2022/01/01 08:38:49;;;;;;;42.67;18.00;;;;;;;10.52;96.35;102218.66;5057953;28;20033;-42
2022/01/01 08:41:15;;;;;;;43.95;17.85;;;;;;;10.51;96.45;102208.91;5047219;28;20029;-42
2022/01/01 08:43:40;;;;;;;42.58;17.40;;;;;;;10.55;96.53;102214.84;5072119;28;20052;-42
2022/01/01 08:46:07;;;;;;;40.42;17.88;;;;;;;10.53;96.86;102197.97;5071946;28;20047;-42
2022/01/01 08:48:33;;;;;;;37.42;16.92;;;;;;;10.57;96.54;102202.06;5062141;28;20511;-42
2022/01/01 08:50:58;;;;;;;37.50;18.23;;;;;;;10.57;96.59;102218.22;5052179;28;20033;-41
2022/01/01 08:53:23;;;;;;;42.22;17.58;;;;;;;10.58;96.58;102190.31;5044829;28;20025;-42
2022/01/01 08:55:49;;;;;;;41.72;18.58;;;;;;;10.60;96.26;102188.31;5047258;28;20367;-41
2022/01/01 08:58:14;;;;;;;44.17;19.02;;;;;;;10.54;96.58;102187.06;5064823;28;20074;-42
2022/01/01 09:00:40;;;;;;;40.33;19.10;;;;;;;10.56;96.40;102195.00;5037442;28;20072;-42
2022/01/01 09:03:05;;;;;;;44.15;19.50;;;;;;;10.56;96.51;102197.69;5040041;28;20037;-42
2022/01/01 09:05:31;;;;;;;47.88;22.13;;;;;;;10.48;96.57;102209.22;5039989;28;20171;-42
2022/01/01 09:07:56;;;;;;;48.92;23.42;;;;;;;10.38;96.72;102186.03;5039399;28;20112;-44
2022/01/01 09:10:21;;;;;;;49.78;22.35;;;;;;;10.30;97.37;102186.75;5030685;28;20465;-42
2022/01/01 09:12:47;;;;;;;58.22;24.92;;;;;;;10.25;97.57;102183.63;5031173;28;20507;-42
2022/01/01 09:15:13;;;;;;;59.13;25.40;;;;;;;10.25;97.88;102181.78;5031580;28;20025;-42
2022/01/01 09:17:38;;;;;;;59.50;25.83;;;;;;;10.25;98.04;102156.72;5031698;28;20041;-42
2022/01/01 09:20:04;;;;;;;64.80;30.63;;;;;;;10.26;98.17;102155.72;5032266;28;20049;-42
2022/01/01 09:22:29;;;;;;;78.18;33.55;;;;;;;10.32;98.12;102153.31;5051119;28;20037;-42
2022/01/01 09:24:55;;;;;;;82.28;34.53;;;;;;;10.35;98.30;102171.00;5050302;28;20040;-43
2022/01/01 09:27:20;;;;;;;80.78;34.60;;;;;;;10.33;98.08;102157.69;5049027;28;20036;-43
2022/01/01 09:29:45;;;;;;;81.47;34.08;;;;;;;10.36;98.41;102142.25;5035671;28;20033;-42
2022/01/01 09:32:11;;;;;;;75.20;33.13;;;;;;;10.48;98.09;102135.69;5040594;28;20493;-43
2022/01/01 09:34:37;;;;;;;69.70;30.15;;;;;;;10.59;96.90;102150.78;5054561;28;20103;-43
2022/01/01 09:37:02;;;;;;;78.15;31.10;;;;;;;10.50;97.45;102152.50;5057159;28;20025;-42
2022/01/01 09:39:27;;;;;;;70.95;29.98;;;;;;;10.61;97.20;102160.41;5051610;28;20081;-42
2022/01/01 09:41:53;;;;;;;70.47;28.05;;;;;;;10.68;96.49;102150.72;5059003;28;20056;-42
2022/01/01 09:44:20;;;;;;;70.72;28.13;;;;;;;10.68;96.21;102153.41;5069065;28;20113;-41
2022/01/01 09:46:49;;;;;;;76.50;30.02;;;;;;;10.74;96.19;102166.28;5046516;28;20025;-42
2022/01/01 09:50:38;;;;;;;77.28;31.88;;;;;;;10.76;95.74;102149.97;5066573;28;20395;-40
2022/01/01 09:53:04;;;;;;;93.15;35.67;;;;;;;10.84;95.83;102144.66;5066467;28;20075;-42
2022/01/01 09:55:29;;;;;;;104.53;37.08;;;;;;;10.79;95.80;102149.66;5066700;28;20028;-42
2022/01/01 09:57:54;;;;;;;100.00;35.28;;;;;;;10.90;95.77;102148.59;5065347;28;20049;-42
2022/01/01 10:00:20;;;;;;;95.63;37.25;;;;;;;10.91;95.54;102148.44;5065429;28;20534;-41
2022/01/01 10:02:45;;;;;;;96.47;36.05;;;;;;;10.80;96.19;102158.59;5066583;28;20032;-42
2022/01/01 10:05:10;;;;;;;107.95;37.97;;;;;;;10.71;96.57;102158.50;5065139;28;20047;-42
2022/01/01 10:07:36;;;;;;;92.45;36.80;;;;;;;10.71;97.30;102161.19;5049678;28;20405;-43
2022/01/01 10:10:23;;;;;;;89.68;36.13;;;;;;;10.81;97.12;102158.44;5045080;28;20045;-43
2022/01/01 10:12:48;;;;;;;87.95;33.80;;;;;;;10.87;96.85;102171.28;5048268;28;20075;-44
2022/01/01 10:15:14;;;;;;;93.28;35.63;;;;;;;10.87;96.84;102175.84;5047383;28;20021;-41
2022/01/01 10:17:40;;;;;;;85.00;34.53;;;;;;;10.78;97.22;102166.81;5036072;28;20057;-42
2022/01/01 10:20:06;;;;;;;81.22;34.67;;;;;;;10.82;97.34;102165.53;5036496;28;20120;-42
2022/01/01 10:22:31;;;;;;;78.57;33.70;;;;;;;10.97;97.22;102165.84;5035949;28;20055;-43
2022/01/01 10:27:58;;;;;;;77.88;31.88;;;;;;;11.08;96.11;102152.16;5049311;28;20128;-42
2022/01/01 10:30:31;;;;;;;;;;;;;;;11.09;96.38;102143.09;5047695;28;20052;-42
2022/01/01 10:33:12;;;;;;;71.18;30.13;;;;;;;11.08;96.26;102152.16;5046788;28;20007;-43
2022/01/01 10:35:44;;;;;;;74.38;31.38;;;;;;;11.10;96.46;102144.75;5049004;28;20021;-43
2022/01/01 10:38:23;;;;;;;70.15;29.95;;;;;;;11.21;96.22;102138.28;5048926;28;20088;-43
2022/01/01 10:40:53;;;;;;;67.72;28.75;;;;;;;11.46;95.53;102136.69;5048772;28;20025;-42
2022/01/01 10:43:20;;;;;;;67.70;28.63;;;;;;;11.57;94.64;102133.72;5048886;28;20025;-41
2022/01/01 10:45:47;;;;;;;60.72;26.90;;;;;;;11.72;93.84;102133.16;5048931;28;20038;-41
2022/01/01 10:50:57;;;;;;;59.67;25.30;;;;;;;11.87;92.69;102131.59;5049088;28;20562;-41
2022/01/01 10:53:24;;;;;;;57.58;25.52;;;;;;;11.83;92.50;102127.50;5047402;28;20037;-42
2022/01/01 10:55:58;;;;;;;54.58;24.10;;;;;;;11.81;92.79;102132.22;5047723;28;20452;-43
2022/01/01 10:58:27;;;;;;;53.85;24.70;;;;;;;11.84;92.58;102130.03;5048648;28;20079;-42
2022/01/01 11:00:59;;;;;;;55.03;23.58;;;;;;;11.82;92.58;102113.19;5040922;28;20104;-42
2022/01/01 11:03:24;;;;;;;54.75;23.67;;;;;;;11.82;92.92;102137.47;5035277;28;20378;-41
2022/01/01 11:06:05;;;;;;;53.25;24.60;;;;;;;11.86;92.75;102124.53;5035208;28;20029;-42
2022/01/01 11:08:32;;;;;;;46.80;22.17;;;;;;;11.93;92.17;102093.22;5033960;28;20076;-42